createdAt,value
2023-05-16T00:00:42.000Z,101301.88
2023-05-16T00:03:12.375Z,101303.13
2023-05-16T00:05:39.455Z,101294.16
2023-05-16T00:08:06.898Z,101295.53
2023-05-16T00:10:33.963Z,101299.09
2023-05-16T00:13:02.217Z,101303.47
2023-05-16T00:15:32.665Z,101307.19
2023-05-16T00:18:01.947Z,101303.25
2023-05-16T00:20:29.896Z,101302.97
2023-05-16T00:23:01.458Z,101300.44
2023-05-16T00:25:29.082Z,101306.47
2023-05-16T00:27:56.050Z,101302.41
2023-05-16T00:30:23.067Z,101305.88
2023-05-16T00:32:50.028Z,101295.09
2023-05-16T00:35:16.821Z,101288.25
2023-05-16T00:37:43.840Z,101307.63
2023-05-16T00:40:11.116Z,101311.84
2023-05-16T00:42:39.116Z,101314.25
2023-05-16T00:45:07.200Z,101313.69
2023-05-16T00:47:34.208Z,101315.34
2023-05-16T00:50:02.242Z,101313.88
2023-05-16T00:52:29.340Z,101322.13
2023-05-16T00:54:56.403Z,101322.25
2023-05-16T00:57:23.971Z,101329.19
2023-05-16T00:59:51.574Z,101330.63
2023-05-16T01:02:18.523Z,101332.53
2023-05-16T01:04:48.528Z,101329.59
2023-05-16T01:07:15.671Z,101328.03
2023-05-16T01:09:42.774Z,101340.25
2023-05-16T01:12:28.444Z,101335.53
2023-05-16T01:15:09.092Z,101345.22
2023-05-16T01:18:12.781Z,101336.84
2023-05-16T01:21:04.247Z,101347.56
2023-05-16T01:23:59.308Z,101341.66
2023-05-16T01:26:28.449Z,101349.09
2023-05-16T01:28:56.230Z,101340.34
2023-05-16T01:31:24.480Z,101344.66
2023-05-16T01:33:51.643Z,101353.09
2023-05-16T01:36:47.945Z,101352.34
2023-05-16T01:39:22.465Z,101345.91
2023-05-16T01:42:27.618Z,101351.59
2023-05-16T01:45:07.421Z,101349.97
2023-05-16T01:47:40.491Z,101348.81
2023-05-16T01:50:10.247Z,101360.28
2023-05-16T01:52:43.481Z,101356.94
2023-05-16T01:55:12.516Z,101344.16
2023-05-16T01:57:41.281Z,101348.16
2023-05-16T02:00:09.134Z,101344.94
2023-05-16T02:02:36.087Z,101341.34
2023-05-16T02:05:03.069Z,101353.44
2023-05-16T02:07:30.326Z,101361.81
2023-05-16T02:09:57.212Z,101352.34
2023-05-16T02:12:25.525Z,101354.72
2023-05-16T02:14:52.525Z,101355.94
2023-05-16T02:17:19.517Z,101363.34
2023-05-16T02:19:46.512Z,101364.00
2023-05-16T02:22:13.368Z,101360.25
2023-05-16T02:24:40.773Z,101366.38
2023-05-16T02:27:07.685Z,101356.31
2023-05-16T02:29:34.671Z,101362.22
2023-05-16T02:32:01.571Z,101363.34
2023-05-16T02:34:28.645Z,101373.09
2023-05-16T02:36:55.486Z,101360.81
2023-05-16T02:39:22.321Z,101364.81
2023-05-16T02:41:49.248Z,101368.94
2023-05-16T02:44:16.416Z,101366.56
2023-05-16T02:46:43.600Z,101366.47
2023-05-16T02:49:10.702Z,101368.84
2023-05-16T02:51:37.517Z,101367.91
2023-05-16T02:54:04.759Z,101371.88
2023-05-16T02:56:31.572Z,101377.34
2023-05-16T02:58:58.570Z,101385.59
2023-05-16T03:01:25.392Z,101387.00
2023-05-16T03:03:52.576Z,101375.78
2023-05-16T03:06:19.575Z,101394.16
2023-05-16T03:08:46.738Z,101388.28
2023-05-16T03:11:14.452Z,101384.34
2023-05-16T03:13:41.956Z,101392.94
2023-05-16T03:16:08.939Z,101403.03
2023-05-16T03:18:36.097Z,101393.84
2023-05-16T03:21:03.528Z,101404.25
2023-05-16T03:23:30.484Z,101406.13
2023-05-16T03:25:57.542Z,101400.25
2023-05-16T03:28:24.636Z,101404.66
2023-05-16T03:30:51.534Z,101411.94
2023-05-16T03:33:19.334Z,101403.25
2023-05-16T03:35:47.221Z,101406.84
2023-05-16T03:38:17.520Z,101408.38
2023-05-16T03:40:44.808Z,101409.53
2023-05-16T03:43:11.647Z,101411.88
2023-05-16T03:45:38.510Z,101399.22
2023-05-16T03:48:05.731Z,101409.94
2023-05-16T03:50:32.862Z,101408.38
2023-05-16T03:52:59.772Z,101416.88
2023-05-16T03:55:26.854Z,101416.44
2023-05-16T03:57:54.355Z,101408.97
2023-05-16T04:00:21.649Z,101415.16
2023-05-16T04:02:48.864Z,101426.84
2023-05-16T04:05:15.961Z,101426.41
2023-05-16T04:07:42.980Z,101432.59
2023-05-16T04:10:10.840Z,101445.09
2023-05-16T04:12:38.262Z,101450.56
2023-05-16T04:15:06.427Z,101448.59
2023-05-16T04:17:33.940Z,101450.50
2023-05-16T04:20:01.195Z,101449.25
2023-05-16T04:22:28.151Z,101449.81
2023-05-16T04:24:55.279Z,101453.94
2023-05-16T04:27:22.218Z,101443.16
2023-05-16T04:29:49.635Z,101452.75
2023-05-16T04:32:17.586Z,101451.56
2023-05-16T04:34:46.939Z,101459.09
2023-05-16T04:37:14.362Z,101457.50
2023-05-16T04:39:46.073Z,101448.94
2023-05-16T04:42:13.211Z,101451.53
2023-05-16T04:44:40.032Z,101455.19
2023-05-16T04:47:07.438Z,101455.13
2023-05-16T04:49:34.395Z,101453.47
2023-05-16T04:52:02.283Z,101459.34
2023-05-16T04:54:29.019Z,101461.41
2023-05-16T04:56:56.203Z,101458.16
2023-05-16T04:59:23.939Z,101467.34
2023-05-16T05:01:50.953Z,101464.91
2023-05-16T05:04:18.062Z,101479.53
2023-05-16T05:06:45.115Z,101471.84
2023-05-16T05:09:11.858Z,101476.19
2023-05-16T05:11:38.667Z,101476.56
2023-05-16T05:14:05.855Z,101473.38
2023-05-16T05:16:33.418Z,101486.72
2023-05-16T05:19:00.700Z,101478.84
2023-05-16T05:21:27.802Z,101469.56
2023-05-16T05:23:54.579Z,101470.59
2023-05-16T05:26:22.694Z,101478.97
2023-05-16T05:29:00.980Z,101484.97
2023-05-16T05:31:31.456Z,101485.94
2023-05-16T05:33:58.387Z,101485.25
2023-05-16T05:36:25.582Z,101476.69
2023-05-16T05:38:52.386Z,101470.38
2023-05-16T05:41:19.361Z,101498.44
2023-05-16T05:43:46.655Z,101499.06
2023-05-16T05:46:13.849Z,101504.50
2023-05-16T05:48:41.188Z,101502.41
2023-05-16T05:51:08.030Z,101502.13
2023-05-16T05:53:35.046Z,101469.78
2023-05-16T05:56:01.989Z,101497.84
2023-05-16T05:58:29.160Z,101495.72
2023-05-16T06:00:56.306Z,101500.34
2023-05-16T06:03:23.281Z,101494.66
2023-05-16T06:05:50.350Z,101507.50
2023-05-16T06:08:23.080Z,101510.06
2023-05-16T06:10:50.493Z,101502.63
2023-05-16T06:13:17.565Z,101501.31
2023-05-16T06:15:44.386Z,101486.41
2023-05-16T06:18:11.228Z,101485.78
2023-05-16T06:20:38.041Z,101482.84
2023-05-16T06:23:05.047Z,101494.41
2023-05-16T06:25:32.491Z,101497.50
2023-05-16T06:27:59.767Z,101493.09
2023-05-16T06:30:26.680Z,101496.75
2023-05-16T06:32:53.543Z,101494.03
2023-05-16T06:35:20.843Z,101500.50
2023-05-16T06:37:47.916Z,101494.41
2023-05-16T06:40:15.085Z,101512.75
2023-05-16T06:42:42.238Z,101503.78
2023-05-16T06:45:10.798Z,101513.91
2023-05-16T06:47:37.901Z,101522.50
2023-05-16T06:50:05.374Z,101524.56
2023-05-16T06:52:32.261Z,101522.56
2023-05-16T06:54:59.236Z,101517.81
2023-05-16T06:57:26.489Z,101528.91
2023-05-16T06:59:53.485Z,101528.75
2023-05-16T07:02:20.486Z,101528.47
2023-05-16T07:04:48.108Z,101530.88
2023-05-16T07:07:15.578Z,101526.75
2023-05-16T07:09:42.543Z,101540.78
2023-05-16T07:12:10.037Z,101541.41
2023-05-16T07:14:37.023Z,101531.16
2023-05-16T07:17:04.644Z,101554.97
2023-05-16T07:19:31.827Z,101557.09
2023-05-16T07:21:58.782Z,101537.16
2023-05-16T07:24:25.783Z,101559.16
2023-05-16T07:26:52.761Z,101558.25
2023-05-16T07:29:20.172Z,101575.56
2023-05-16T07:31:47.233Z,101561.66
2023-05-16T07:34:14.152Z,101548.88
2023-05-16T07:36:41.638Z,101551.09
2023-05-16T07:39:08.573Z,101551.38
2023-05-16T07:41:35.918Z,101541.88
2023-05-16T07:44:03.309Z,101556.88
2023-05-16T07:46:30.506Z,101554.69
2023-05-16T07:48:57.508Z,101550.44
2023-05-16T07:51:24.719Z,101549.66
2023-05-16T07:53:52.319Z,101558.88
2023-05-16T07:56:19.442Z,101571.81
2023-05-16T07:58:49.233Z,101578.34
2023-05-16T08:01:17.287Z,101573.16
2023-05-16T08:03:44.362Z,101569.56
2023-05-16T08:06:12.204Z,101543.44
2023-05-16T08:08:39.128Z,101542.16
2023-05-16T08:11:06.091Z,101557.25
2023-05-16T08:13:33.002Z,101574.06
2023-05-16T08:16:00.024Z,101562.44
2023-05-16T08:18:27.092Z,101569.03
2023-05-16T08:20:54.009Z,101554.53
2023-05-16T08:23:21.922Z,101546.81
2023-05-16T08:25:49.062Z,101548.69
2023-05-16T08:28:16.266Z,101562.63
2023-05-16T08:30:44.562Z,101556.06
2023-05-16T08:33:13.003Z,101554.63
2023-05-16T08:35:44.309Z,101557.44
2023-05-16T08:38:11.619Z,101546.00
2023-05-16T08:40:38.636Z,101576.16
2023-05-16T08:43:05.783Z,101553.09
2023-05-16T08:45:32.781Z,101569.44
2023-05-16T08:48:01.608Z,101592.25
2023-05-16T08:50:32.907Z,101577.84
2023-05-16T08:53:07.370Z,101568.19
2023-05-16T08:55:36.055Z,101562.41
2023-05-16T08:58:03.988Z,101577.97
2023-05-16T09:00:31.959Z,101578.41
2023-05-16T09:02:59.766Z,101593.69
2023-05-16T09:05:30.505Z,101592.47
2023-05-16T09:07:57.601Z,101569.38
2023-05-16T09:10:24.809Z,101566.72
2023-05-16T09:12:52.063Z,101566.25
2023-05-16T09:15:20.931Z,101561.59
2023-05-16T09:17:49.344Z,101560.78
2023-05-16T09:20:18.666Z,101554.09
2023-05-16T09:22:53.315Z,101560.00
2023-05-16T09:25:30.420Z,101560.06
2023-05-16T09:27:59.870Z,101560.53
2023-05-16T09:30:35.167Z,101558.16
2023-05-16T09:33:02.741Z,101570.13
2023-05-16T09:37:59.899Z,101602.50
2023-05-16T09:40:26.766Z,101581.22
2023-05-16T09:43:06.073Z,101579.25
2023-05-16T09:45:34.478Z,101583.06
2023-05-16T09:48:08.800Z,101598.59
2023-05-16T09:50:37.968Z,101597.78
2023-05-16T09:53:05.776Z,101600.22
2023-05-16T09:55:33.242Z,101585.63
2023-05-16T09:58:00.281Z,101579.53
2023-05-16T10:00:32.542Z,101585.34
2023-05-16T10:03:04.323Z,101587.88
2023-05-16T10:05:33.083Z,101586.16
2023-05-16T10:08:02.906Z,101588.16
2023-05-16T10:10:30.464Z,101601.34
2023-05-16T10:13:01.747Z,101585.91
2023-05-16T10:15:30.359Z,101572.88
2023-05-16T10:18:00.820Z,101572.84
2023-05-16T10:20:28.524Z,101594.56
2023-05-16T10:22:58.661Z,101609.03
2023-05-16T10:25:39.501Z,101620.84
2023-05-16T10:28:09.027Z,101615.81
2023-05-16T10:30:37.723Z,101616.16
2023-05-16T10:33:05.365Z,101602.81
2023-05-16T10:35:33.349Z,101614.47
2023-05-16T10:38:01.942Z,101649.34
2023-05-16T10:40:31.010Z,101650.31
2023-05-16T10:43:00.013Z,101644.72
2023-05-16T10:45:27.809Z,101647.09
2023-05-16T10:47:56.766Z,101643.56
2023-05-16T10:50:44.014Z,101634.06
2023-05-16T10:53:14.528Z,101636.00
2023-05-16T10:56:00.574Z,101648.88
2023-05-16T10:58:33.506Z,101629.59
2023-05-16T11:01:19.316Z,101634.97
2023-05-16T11:04:00.897Z,101641.97
2023-05-16T11:06:41.351Z,101635.16
2023-05-16T11:09:11.484Z,101616.59
2023-05-16T11:11:45.606Z,101608.31
2023-05-16T11:14:27.108Z,101615.22
2023-05-16T11:17:12.563Z,101615.69
2023-05-16T11:19:48.162Z,101609.06
2023-05-16T11:22:23.968Z,101613.34
2023-05-16T11:24:54.266Z,101613.22
2023-05-16T11:27:28.122Z,101614.72
2023-05-16T11:30:02.095Z,101618.41
2023-05-16T11:32:31.301Z,101618.88
2023-05-16T11:34:58.662Z,101621.44
2023-05-16T11:37:28.470Z,101636.22
2023-05-16T11:40:00.479Z,101641.75
2023-05-16T11:42:39.792Z,101640.06
2023-05-16T11:45:12.508Z,101652.03
2023-05-16T11:47:40.891Z,101677.09
2023-05-16T11:50:13.341Z,101696.22
2023-05-16T11:52:42.906Z,101699.03
2023-05-16T11:55:11.544Z,101705.88
2023-05-16T11:57:39.543Z,101698.97
2023-05-16T12:00:15.407Z,101696.19
2023-05-16T12:02:42.413Z,101700.00
2023-05-16T12:05:10.796Z,101696.25
2023-05-16T12:07:38.570Z,101689.66
2023-05-16T12:10:09.847Z,101693.53
2023-05-16T12:12:38.425Z,101692.50
2023-05-16T12:15:07.283Z,101692.28
2023-05-16T12:17:38.595Z,101684.78
2023-05-16T12:20:06.974Z,101693.38
2023-05-16T12:22:34.822Z,101696.72
2023-05-16T12:25:39.480Z,101694.22
2023-05-16T12:28:09.953Z,101682.91
2023-05-16T12:30:41.708Z,101685.72
2023-05-16T12:33:13.478Z,101709.34
2023-05-16T12:35:46.040Z,101700.63
2023-05-16T12:38:15.456Z,101710.25
2023-05-16T12:40:43.942Z,101736.22
2023-05-16T12:43:19.837Z,101724.25
2023-05-16T12:45:57.583Z,101724.03
2023-05-16T12:48:35.624Z,101705.38
2023-05-16T12:51:17.535Z,101708.25
2023-05-16T12:54:01.601Z,101713.63
2023-05-16T12:56:36.398Z,101710.25
2023-05-16T12:59:04.058Z,101714.63
2023-05-16T13:01:31.332Z,101730.44
2023-05-16T13:03:58.467Z,101736.41
2023-05-16T13:06:25.689Z,101740.88
2023-05-16T13:08:52.762Z,101738.28
2023-05-16T13:11:19.870Z,101742.69
2023-05-16T13:13:47.057Z,101742.19
2023-05-16T13:16:13.931Z,101749.34
2023-05-16T13:18:41.173Z,101756.16
2023-05-16T13:21:08.226Z,101752.41
2023-05-16T13:23:35.215Z,101749.63
2023-05-16T13:26:02.084Z,101749.53
2023-05-16T13:28:29.094Z,101746.59
2023-05-16T13:30:56.536Z,101742.69
2023-05-16T13:33:25.130Z,101742.09
2023-05-16T13:35:52.216Z,101760.38
2023-05-16T13:38:19.062Z,101752.47
2023-05-16T13:40:45.980Z,101759.38
2023-05-16T13:43:15.775Z,101752.00
2023-05-16T13:45:44.479Z,101747.53
2023-05-16T13:48:11.736Z,101755.16
2023-05-16T13:50:44.065Z,101751.91
2023-05-16T13:53:11.721Z,101758.50
2023-05-16T13:55:38.933Z,101748.59
2023-05-16T13:58:06.083Z,101738.16
2023-05-16T14:00:44.309Z,101728.16
2023-05-16T14:03:12.582Z,101736.31
2023-05-16T14:05:39.980Z,101739.53
2023-05-16T14:08:07.042Z,101731.50
2023-05-16T14:10:34.003Z,101737.81
2023-05-16T14:13:01.070Z,101729.94
2023-05-16T14:15:28.448Z,101742.63
2023-05-16T14:17:55.774Z,101729.81
2023-05-16T14:20:23.280Z,101761.34
2023-05-16T14:22:50.384Z,101760.66
2023-05-16T14:25:17.697Z,101767.47
2023-05-16T14:27:44.726Z,101734.69
2023-05-16T14:30:12.707Z,101721.47
2023-05-16T14:32:40.228Z,101708.59
2023-05-16T14:35:07.543Z,101721.91
2023-05-16T14:37:34.350Z,101722.50
2023-05-16T14:40:01.223Z,101733.69
2023-05-16T14:42:28.285Z,101738.41
2023-05-16T14:44:55.174Z,101732.38
2023-05-16T14:47:22.223Z,101730.47
2023-05-16T14:49:49.182Z,101723.34
2023-05-16T14:52:16.292Z,101728.53
2023-05-16T14:54:43.396Z,101716.91
2023-05-16T14:57:10.314Z,101721.59
2023-05-16T14:59:37.257Z,101709.44
2023-05-16T15:02:04.771Z,101703.38
2023-05-16T15:04:33.043Z,101720.22
2023-05-16T15:07:00.203Z,101720.19
2023-05-16T15:09:27.366Z,101719.97
2023-05-16T15:11:54.194Z,101708.50
2023-05-16T15:14:21.250Z,101723.97
2023-05-16T15:16:49.272Z,101740.34
2023-05-16T15:19:16.409Z,101751.00
2023-05-16T15:21:43.999Z,101744.13
2023-05-16T15:24:12.506Z,101744.34
2023-05-16T15:26:40.168Z,101735.00
2023-05-16T15:29:07.225Z,101755.69
2023-05-16T15:31:34.161Z,101756.75
2023-05-16T15:34:01.177Z,101766.91
2023-05-16T15:36:29.476Z,101775.28
2023-05-16T15:38:56.541Z,101780.41
2023-05-16T15:41:37.098Z,101779.19
2023-05-16T15:44:10.938Z,101784.22
2023-05-16T15:46:38.097Z,101769.31
2023-05-16T15:49:05.333Z,101780.94
2023-05-16T15:51:32.327Z,101781.03
2023-05-16T15:53:59.315Z,101766.47
2023-05-16T15:56:26.671Z,101763.25
2023-05-16T15:58:57.152Z,101777.47
2023-05-16T16:01:24.215Z,101774.97
2023-05-16T16:03:51.848Z,101770.00
2023-05-16T16:06:20.038Z,101777.44
2023-05-16T16:08:46.849Z,101769.69
2023-05-16T16:11:13.893Z,101753.16
2023-05-16T16:13:40.978Z,101753.31
2023-05-16T16:16:08.139Z,101759.19
2023-05-16T16:18:35.076Z,101763.28
2023-05-16T16:21:02.108Z,101770.88
2023-05-16T16:23:29.076Z,101752.88
2023-05-16T16:25:56.141Z,101752.09
2023-05-16T16:28:23.418Z,101757.94
2023-05-16T16:30:50.822Z,101753.03
2023-05-16T16:33:17.833Z,101754.44
2023-05-16T16:35:45.069Z,101759.19
2023-05-16T16:38:12.102Z,101754.19
2023-05-16T16:40:39.069Z,101762.09
2023-05-16T16:43:07.344Z,101767.84
2023-05-16T16:45:34.291Z,101751.72
2023-05-16T16:48:01.317Z,101751.94
2023-05-16T16:50:28.300Z,101752.75
2023-05-16T16:52:55.450Z,101746.00
2023-05-16T16:55:22.538Z,101759.41
2023-05-16T16:57:51.760Z,101751.47
2023-05-16T17:00:19.590Z,101758.25
2023-05-16T17:02:46.567Z,101772.97
2023-05-16T17:05:13.962Z,101774.94
2023-05-16T17:07:40.966Z,101780.47
2023-05-16T17:10:09.377Z,101780.75
2023-05-16T17:12:38.058Z,101784.53
2023-05-16T17:15:06.512Z,101787.09
2023-05-16T17:17:33.758Z,101790.25
2023-05-16T17:20:04.388Z,101787.31
2023-05-16T17:22:31.680Z,101790.47
2023-05-16T17:24:58.696Z,101782.16
2023-05-16T17:27:25.920Z,101787.66
2023-05-16T17:29:52.930Z,101794.91
2023-05-16T17:32:21.602Z,101800.34
2023-05-16T17:34:48.800Z,101790.03
2023-05-16T17:37:15.984Z,101783.59
2023-05-16T17:39:43.014Z,101800.63
2023-05-16T17:42:11.331Z,101805.91
2023-05-16T17:44:38.384Z,101812.75
2023-05-16T17:47:05.342Z,101821.88
2023-05-16T17:49:35.648Z,101807.38
2023-05-16T17:52:02.941Z,101815.63
2023-05-16T17:54:32.726Z,101817.91
2023-05-16T17:57:00.806Z,101813.31
2023-05-16T17:59:28.009Z,101817.75
2023-05-16T18:01:56.385Z,101818.81
2023-05-16T18:04:24.240Z,101811.53
2023-05-16T18:06:54.875Z,101810.81
2023-05-16T18:09:25.748Z,101812.34
2023-05-16T18:11:52.950Z,101814.13
2023-05-16T18:14:20.176Z,101822.16
2023-05-16T18:16:47.274Z,101806.75
2023-05-16T18:19:14.619Z,101818.63
2023-05-16T18:21:44.428Z,101824.31
2023-05-16T18:24:13.308Z,101820.06
2023-05-16T18:26:40.401Z,101819.06
2023-05-16T18:29:08.572Z,101821.66
2023-05-16T18:31:35.762Z,101828.66
2023-05-16T18:34:02.969Z,101827.78
2023-05-16T18:36:29.967Z,101831.38
2023-05-16T18:38:57.215Z,101821.41
2023-05-16T18:41:24.179Z,101827.72
2023-05-16T18:43:51.221Z,101831.06
2023-05-16T18:46:18.122Z,101831.97
2023-05-16T18:48:45.173Z,101832.28
2023-05-16T18:51:14.093Z,101841.28
2023-05-16T18:53:41.360Z,101850.38
2023-05-16T18:56:09.828Z,101834.13
2023-05-16T18:58:37.148Z,101838.78
2023-05-16T19:01:04.413Z,101846.06
2023-05-16T19:03:31.815Z,101852.25
2023-05-16T19:05:59.008Z,101855.25
2023-05-16T19:08:31.233Z,101850.13
2023-05-16T19:11:04.161Z,101865.53
2023-05-16T19:13:32.578Z,101863.94
2023-05-16T19:15:59.503Z,101863.84
2023-05-16T19:18:26.979Z,101866.63
2023-05-16T19:20:54.140Z,101859.06
2023-05-16T19:23:21.910Z,101872.31
2023-05-16T19:25:49.269Z,101871.75
2023-05-16T19:28:16.912Z,101880.34
2023-05-16T19:30:44.318Z,101873.53
2023-05-16T19:33:11.281Z,101890.25
2023-05-16T19:35:38.706Z,101887.19
2023-05-16T19:38:05.943Z,101892.50
2023-05-16T19:40:34.580Z,101896.38
2023-05-16T19:43:01.704Z,101890.19
2023-05-16T19:45:28.914Z,101900.31
2023-05-16T19:47:56.151Z,101900.16
2023-05-16T19:50:23.204Z,101890.50
2023-05-16T19:52:50.287Z,101894.00
2023-05-16T19:55:17.202Z,101902.06
2023-05-16T19:57:44.471Z,101902.41
2023-05-16T20:00:12.083Z,101906.56
2023-05-16T20:02:38.913Z,101908.53
2023-05-16T20:05:06.825Z,101907.97
2023-05-16T20:07:33.674Z,101899.06
2023-05-16T20:10:01.203Z,101901.63
2023-05-16T20:12:28.153Z,101902.06
2023-05-16T20:14:55.112Z,101899.66
2023-05-16T20:17:22.159Z,101878.31
2023-05-16T20:19:49.300Z,101900.47
2023-05-16T20:22:16.277Z,101888.44
2023-05-16T20:24:43.686Z,101905.03
2023-05-16T20:27:10.664Z,101893.91
2023-05-16T20:29:37.908Z,101908.56
2023-05-16T20:32:05.128Z,101893.81
2023-05-16T20:34:32.154Z,101906.34
2023-05-16T20:36:59.585Z,101894.34
2023-05-16T20:39:26.444Z,101901.81
2023-05-16T20:41:53.606Z,101910.47
2023-05-16T20:44:21.115Z,101895.56
2023-05-16T20:46:48.070Z,101905.53
2023-05-16T20:49:15.243Z,101908.41
2023-05-16T20:51:42.640Z,101910.13
2023-05-16T20:54:10.865Z,101908.22
2023-05-16T20:56:37.908Z,101900.91
2023-05-16T20:59:04.891Z,101908.81
2023-05-16T21:01:32.154Z,101912.31
2023-05-16T21:03:59.235Z,101903.13
2023-05-16T21:06:26.307Z,101886.31
2023-05-16T21:08:53.382Z,101901.81
2023-05-16T21:11:20.521Z,101897.94
2023-05-16T21:13:47.904Z,101895.16
2023-05-16T21:16:15.541Z,101888.41
2023-05-16T21:18:42.857Z,101895.22
2023-05-16T21:21:10.033Z,101898.31
2023-05-16T21:23:37.321Z,101902.03
2023-05-16T21:26:04.377Z,101898.66
2023-05-16T21:28:32.789Z,101896.41
2023-05-16T21:31:01.751Z,101907.00
2023-05-16T21:33:28.832Z,101896.38
2023-05-16T21:35:56.035Z,101905.34
2023-05-16T21:38:23.030Z,101899.84
2023-05-16T21:40:50.249Z,101896.19
2023-05-16T21:43:17.258Z,101892.66
2023-05-16T21:45:44.151Z,101902.84
2023-05-16T21:48:11.299Z,101902.34
2023-05-16T21:50:38.352Z,101891.16
2023-05-16T21:53:05.478Z,101906.81
2023-05-16T21:55:32.643Z,101903.34
2023-05-16T21:57:59.777Z,101912.47
2023-05-16T22:00:26.704Z,101901.56
2023-05-16T22:02:55.152Z,101896.66
2023-05-16T22:05:22.332Z,101895.78
2023-05-16T22:07:49.212Z,101911.47
2023-05-16T22:10:17.084Z,101905.34
2023-05-16T22:12:44.160Z,101903.69
2023-05-16T22:15:11.650Z,101867.09
2023-05-16T22:17:38.651Z,101900.31
2023-05-16T22:20:06.452Z,101896.66
2023-05-16T22:22:33.371Z,101901.94
2023-05-16T22:25:03.216Z,101904.63
2023-05-16T22:27:30.283Z,101904.69
2023-05-16T22:29:57.310Z,101904.72
2023-05-16T22:32:24.724Z,101903.28
2023-05-16T22:34:52.886Z,101913.06
2023-05-16T22:37:19.884Z,101904.41
2023-05-16T22:39:47.017Z,101899.97
2023-05-16T22:42:14.100Z,101903.50
2023-05-16T22:44:41.040Z,101905.47
2023-05-16T22:47:08.026Z,101909.44
2023-05-16T22:49:35.018Z,101917.50
2023-05-16T22:52:01.926Z,101916.13
2023-05-16T22:54:28.956Z,101913.91
2023-05-16T22:56:56.315Z,101908.91
2023-05-16T22:59:23.313Z,101920.31
2023-05-16T23:01:50.343Z,101892.56
2023-05-16T23:04:17.181Z,101922.94
2023-05-16T23:06:44.093Z,101926.16
2023-05-16T23:09:10.940Z,101933.47
2023-05-16T23:11:37.918Z,101925.66
2023-05-16T23:14:04.938Z,101928.72
2023-05-16T23:16:31.750Z,101923.44
2023-05-16T23:18:58.809Z,101931.19
2023-05-16T23:21:25.836Z,101931.31
2023-05-16T23:23:52.731Z,101935.66
2023-05-16T23:26:19.693Z,101933.75
2023-05-16T23:28:46.614Z,101936.34
2023-05-16T23:31:13.688Z,101942.28
2023-05-16T23:33:40.518Z,101943.16
2023-05-16T23:36:07.673Z,101947.06
2023-05-16T23:38:34.638Z,101951.44
2023-05-16T23:41:01.655Z,101947.91
2023-05-16T23:43:28.509Z,101958.50
2023-05-16T23:45:55.464Z,101954.09
2023-05-16T23:48:22.454Z,101954.97
2023-05-16T23:50:49.408Z,101957.75
2023-05-16T23:53:16.872Z,101958.63
2023-05-16T23:55:44.215Z,101948.06
2023-05-16T23:58:11.255Z,101956.94
